HALAVI1 LLEK-LLEK

Flight info

Callsign HALAVI1
Flight time 0h 43m
Altitude 12000
Route AIRSHOW ROUTE
Aircraft F15/L-SDGRUY/LB1

Departure

Time 2026-04-22 12:02
Airport Tel Nof Air Base (LLEK)

Arrival

Time 2026-04-22 12:45
Airport Tel Nof Air Base (LLEK)
Time Latitude Longitude Altitude Speed Heading
2026-04-22 11:57 31.84700 34.81547 181 ft 0 kts 120°
2026-04-22 11:57 31.84686 34.81600 180 ft 16 kts 98°
2026-04-22 11:57 31.84659 34.81844 182 ft 20 kts 90°
2026-04-22 11:58 31.84660 34.81954 179 ft 14 kts 62°
2026-04-22 11:58 31.84703 34.82071 179 ft 17 kts 95°
2026-04-22 11:58 31.84582 34.82167 182 ft 34 kts 151°
2026-04-22 11:58 31.84387 34.82289 185 ft 29 kts 150°
2026-04-22 11:59 31.84067 34.82504 193 ft 59 kts 151°
2026-04-22 11:59 31.83681 34.82758 181 ft 64 kts 151°
2026-04-22 11:59 31.83312 34.82993 185 ft 52 kts 152°
2026-04-22 11:59 31.83028 34.83177 182 ft 42 kts 152°
2026-04-22 12:00 31.82870 34.83290 178 ft 4 kts 50°
2026-04-22 12:00 31.82902 34.83280 179 ft 0 kts 334°
2026-04-22 12:01 31.82956 34.83244 181 ft 71 kts 330°
2026-04-22 12:01 31.84129 34.82450 390 ft 262 kts 330°
2026-04-22 12:02 31.85592 34.81469 1373 ft 230 kts 329°
2026-04-22 12:02 31.86767 34.79985 1994 ft 249 kts 298°
2026-04-22 12:02 31.87519 34.78144 2802 ft 247 kts 294°
2026-04-22 12:02 31.88228 34.76252 3799 ft 256 kts 295°
2026-04-22 12:03 31.88996 34.74347 4721 ft 267 kts 294°
2026-04-22 12:03 31.89820 34.72434 5609 ft 268 kts 298°
2026-04-22 12:03 31.90664 34.70513 6761 ft 255 kts 297°
2026-04-22 12:03 31.91510 34.68624 7966 ft 267 kts 298°
2026-04-22 12:04 31.92441 34.66621 8667 ft 276 kts 298°
2026-04-22 12:04 31.93335 34.64664 9587 ft 267 kts 298°
2026-04-22 12:04 31.94147 34.63069 10514 ft 187 kts 311°
2026-04-22 12:04 31.95351 34.62310 10567 ft 260 kts
2026-04-22 12:05 31.97288 34.63022 9821 ft 304 kts 22°
2026-04-22 12:05 31.99220 34.64001 9577 ft 283 kts 25°
2026-04-22 12:05 32.01105 34.65070 10252 ft 344 kts 26°
2026-04-22 12:05 32.03270 34.66304 11432 ft 347 kts 26°
2026-04-22 12:06 32.05456 34.67593 11750 ft 357 kts 27°
2026-04-22 12:06 32.07664 34.68945 11879 ft 359 kts 27°
2026-04-22 12:06 32.09869 34.70321 11937 ft 358 kts 28°
2026-04-22 12:06 32.12064 34.71702 11963 ft 358 kts 28°
2026-04-22 12:07 32.14261 34.73090 11982 ft 358 kts 28°
2026-04-22 12:07 32.16434 34.74361 11974 ft 352 kts 22°
2026-04-22 12:07 32.18767 34.75411 11988 ft 357 kts 18°
2026-04-22 12:07 32.21104 34.76260 11996 ft 358 kts 14°
2026-04-22 12:08 32.23509 34.77006 11998 ft 357 kts 15°
2026-04-22 12:08 32.25898 34.77815 12000 ft 357 kts 16°
2026-04-22 12:08 32.28279 34.78657 11999 ft 357 kts 17°
2026-04-22 12:08 32.30682 34.79543 12000 ft 357 kts 17°
2026-04-22 12:09 32.33018 34.80442 12000 ft 357 kts 18°
2026-04-22 12:09 32.35418 34.81274 11999 ft 357 kts 13°
2026-04-22 12:09 32.37841 34.81919 12000 ft 356 kts 11°
2026-04-22 12:09 32.40273 34.82492 12000 ft 356 kts 10°
2026-04-22 12:10 32.42677 34.83010 12000 ft 356 kts
2026-04-22 12:10 32.45103 34.83501 12002 ft 356 kts
2026-04-22 12:10 32.47589 34.83963 12000 ft 356 kts
2026-04-22 12:10 32.50030 34.84465 12000 ft 356 kts 10°
2026-04-22 12:11 32.52457 34.85040 12000 ft 356 kts 12°
2026-04-22 12:11 32.54891 34.85672 12001 ft 356 kts 12°
2026-04-22 12:11 32.57311 34.86327 12000 ft 356 kts 13°
2026-04-22 12:11 32.59659 34.86986 12000 ft 356 kts 13°
2026-04-22 12:12 32.62109 34.87687 12000 ft 356 kts 12°
2026-04-22 12:12 32.64539 34.88264 11999 ft 356 kts 10°
2026-04-22 12:12 32.66923 34.88768 12000 ft 356 kts
2026-04-22 12:12 32.68600 34.89093 11999 ft 356 kts
2026-04-22 12:13 32.71051 34.89543 12000 ft 356 kts
2026-04-22 12:13 32.73500 34.89980 12000 ft 356 kts
2026-04-22 12:13 32.75957 34.90415 12000 ft 356 kts
2026-04-22 12:13 32.78409 34.90869 12000 ft 356 kts
2026-04-22 12:14 32.80828 34.91330 12001 ft 356 kts
2026-04-22 12:14 32.83294 34.91286 12056 ft 354 kts 346°
2026-04-22 12:14 32.85477 34.90066 12511 ft 356 kts 317°
2026-04-22 12:14 32.87115 34.87836 12993 ft 355 kts 309°
2026-04-22 12:15 32.88683 34.85551 13562 ft 360 kts 309°
2026-04-22 12:15 32.89988 34.82985 13942 ft 367 kts 289°
2026-04-22 12:15 32.90789 34.80141 13974 ft 365 kts 288°
2026-04-22 12:15 32.91521 34.77215 13984 ft 366 kts 283°
2026-04-22 12:16 32.91956 34.74286 13948 ft 365 kts 278°
2026-04-22 12:16 32.92302 34.71294 14018 ft 364 kts 272°
2026-04-22 12:16 32.91871 34.68350 14003 ft 365 kts 244°
2026-04-22 12:16 32.90282 34.66030 14036 ft 364 kts 212°
2026-04-22 12:17 32.87835 34.65466 14017 ft 368 kts 167°
2026-04-22 12:17 32.85596 34.66868 13952 ft 367 kts 136°
2026-04-22 12:17 32.84086 34.69300 14024 ft 370 kts 113°
2026-04-22 12:17 32.83472 34.72324 14015 ft 369 kts 90°
2026-04-22 12:18 32.83890 34.75342 13963 ft 368 kts 68°
2026-04-22 12:18 32.85301 34.77927 13845 ft 369 kts 41°
2026-04-22 12:18 32.87538 34.79451 13913 ft 366 kts 14°
2026-04-22 12:18 32.90003 34.79571 13928 ft 366 kts 346°
2026-04-22 12:19 32.92265 34.78260 13953 ft 366 kts 317°
2026-04-22 12:19 32.93697 34.75806 13982 ft 365 kts 288°
2026-04-22 12:19 32.93860 34.72848 14283 ft 363 kts 258°
2026-04-22 12:19 32.92734 34.70160 14223 ft 368 kts 226°
2026-04-22 12:20 32.90594 34.68571 13951 ft 366 kts 194°
2026-04-22 12:20 32.88122 34.68608 14186 ft 364 kts 165°
2026-04-22 12:20 32.85869 34.69915 14209 ft 371 kts 140°
2026-04-22 12:20 32.84290 34.72447 14151 ft 370 kts 110°
2026-04-22 12:21 32.83971 34.75356 14013 ft 367 kts 79°
2026-04-22 12:21 32.85040 34.78135 14269 ft 369 kts 48°
2026-04-22 12:21 32.87057 34.80063 14250 ft 372 kts 26°
2026-04-22 12:21 32.89512 34.80851 13972 ft 366 kts
2026-04-22 12:22 32.92000 34.80330 13882 ft 364 kts 336°
2026-04-22 12:22 32.94027 34.78589 14103 ft 360 kts 306°
2026-04-22 12:22 32.94894 34.75818 14384 ft 370 kts 266°
2026-04-22 12:22 32.93850 34.73196 14397 ft 370 kts 208°
2026-04-22 12:23 32.91641 34.73868 13409 ft 343 kts 115°
2026-04-22 12:23 32.91707 34.76363 11887 ft 311 kts 73°
2026-04-22 12:23 32.92337 34.78856 10608 ft 317 kts 72°
2026-04-22 12:23 32.93004 34.81385 9297 ft 322 kts 72°
2026-04-22 12:24 32.93691 34.83898 8295 ft 317 kts 71°
2026-04-22 12:24 32.94386 34.86367 7383 ft 309 kts 71°
2026-04-22 12:24 32.95016 34.88779 6462 ft 302 kts 77°
2026-04-22 12:24 32.95309 34.91238 5489 ft 298 kts 86°
2026-04-22 12:25 32.95386 34.93670 4713 ft 289 kts 90°
2026-04-22 12:25 32.95338 34.96019 4005 ft 279 kts 92°
2026-04-22 12:25 32.95272 34.98284 3306 ft 269 kts 92°
2026-04-22 12:25 32.95211 35.00498 2608 ft 266 kts 91°
2026-04-22 12:26 32.94970 35.02650 2047 ft 259 kts 109°
2026-04-22 12:26 32.93886 35.04275 1768 ft 258 kts 152°
2026-04-22 12:26 32.92152 35.04583 1564 ft 257 kts 195°
2026-04-22 12:26 32.90599 35.03687 1499 ft 254 kts 221°
2026-04-22 12:27 32.89423 35.02431 1497 ft 237 kts 223°
2026-04-22 12:27 32.88099 35.00993 1463 ft 257 kts 223°
2026-04-22 12:27 32.86782 34.99554 1483 ft 256 kts 223°
2026-04-22 12:27 32.85469 34.98118 1497 ft 256 kts 223°
2026-04-22 12:28 32.84163 34.96685 1504 ft 256 kts 223°
2026-04-22 12:28 32.82852 34.95257 1506 ft 255 kts 216°
2026-04-22 12:28 32.81227 34.94445 1512 ft 257 kts 194°
2026-04-22 12:28 32.79501 34.94046 1507 ft 254 kts 189°
2026-04-22 12:29 32.77733 34.93765 1503 ft 254 kts 187°
2026-04-22 12:29 32.75961 34.93530 1499 ft 255 kts 186°
2026-04-22 12:29 32.74194 34.93316 1498 ft 257 kts 186°
2026-04-22 12:29 32.72425 34.93109 1499 ft 258 kts 186°
2026-04-22 12:30 32.68889 34.92665 1504 ft 254 kts 186°
2026-04-22 12:30 32.67122 34.92419 1502 ft 253 kts 189°
2026-04-22 12:30 32.65392 34.92067 1501 ft 254 kts 191°
2026-04-22 12:31 32.63646 34.91656 1498 ft 255 kts 192°
2026-04-22 12:31 32.61906 34.91227 1497 ft 256 kts 192°
2026-04-22 12:31 32.60213 34.90815 1499 ft 257 kts 192°
2026-04-22 12:31 32.58399 34.90379 1499 ft 258 kts 192°
2026-04-22 12:32 32.56681 34.89981 1500 ft 256 kts 191°
2026-04-22 12:32 32.53182 34.89203 1500 ft 253 kts 191°
2026-04-22 12:32 32.51433 34.88818 1500 ft 253 kts 191°
2026-04-22 12:33 32.49742 34.88412 1499 ft 255 kts 194°
2026-04-22 12:33 32.47936 34.88002 1544 ft 265 kts 192°
2026-04-22 12:33 32.45348 34.86991 1735 ft 507 kts 198°
2026-04-22 12:33 32.42468 34.86045 1648 ft 357 kts 193°
2026-04-22 12:34 32.40396 34.85502 1553 ft 235 kts 192°
2026-04-22 12:34 32.38655 34.85097 1513 ft 257 kts 191°
2026-04-22 12:34 32.36887 34.84719 1501 ft 257 kts 190°
2026-04-22 12:34 32.35135 34.84360 1502 ft 258 kts 190°
2026-04-22 12:35 32.33361 34.84015 1502 ft 256 kts 189°
2026-04-22 12:35 32.31558 34.83615 1504 ft 257 kts 192°
2026-04-22 12:35 32.29843 34.83161 1505 ft 255 kts 193°
2026-04-22 12:35 32.28111 34.82666 1502 ft 257 kts 194°
2026-04-22 12:36 32.26389 34.82157 1502 ft 257 kts 194°
2026-04-22 12:36 32.24664 34.81640 1503 ft 256 kts 194°
2026-04-22 12:36 32.22941 34.81120 1504 ft 253 kts 195°
2026-04-22 12:36 32.21220 34.80598 1502 ft 253 kts 195°
2026-04-22 12:37 32.19999 34.80221 1498 ft 256 kts 195°
2026-04-22 12:37 32.18276 34.79668 1499 ft 257 kts 196°
2026-04-22 12:37 32.16569 34.79079 1498 ft 258 kts 197°
2026-04-22 12:37 32.14871 34.78471 1501 ft 256 kts 197°
2026-04-22 12:38 32.13177 34.77854 1503 ft 254 kts 198°
2026-04-22 12:38 32.11478 34.77230 1502 ft 253 kts 198°
2026-04-22 12:38 32.09780 34.76604 1501 ft 253 kts 198°
2026-04-22 12:38 32.08087 34.75969 1498 ft 254 kts 199°
2026-04-22 12:39 32.06432 34.75215 1498 ft 256 kts 204°
2026-04-22 12:39 32.03276 34.73598 1500 ft 257 kts 197°
2026-04-22 12:39 32.01557 34.73086 1502 ft 255 kts 191°
2026-04-22 12:40 31.99781 34.73217 1727 ft 259 kts 162°
2026-04-22 12:40 31.98049 34.74065 1863 ft 260 kts 155°
2026-04-22 12:40 31.96506 34.75146 2038 ft 256 kts 145°
2026-04-22 12:40 31.94990 34.76336 2116 ft 256 kts 146°
2026-04-22 12:41 31.93537 34.77602 2268 ft 257 kts 142°
2026-04-22 12:41 31.92127 34.78938 2390 ft 259 kts 141°
2026-04-22 12:41 31.90731 34.80303 2449 ft 261 kts 140°
2026-04-22 12:41 31.89342 34.81680 2477 ft 262 kts 140°
2026-04-22 12:42 31.87957 34.83060 2490 ft 263 kts 140°
2026-04-22 12:42 31.86571 34.84444 2491 ft 263 kts 140°
2026-04-22 12:42 31.85187 34.85828 2505 ft 260 kts 140°
2026-04-22 12:42 31.83783 34.87211 2501 ft 259 kts 142°
2026-04-22 12:43 31.82324 34.88528 2502 ft 260 kts 143°
2026-04-22 12:43 31.80748 34.89183 2418 ft 248 kts 197°
2026-04-22 12:43 31.79472 34.87878 2228 ft 254 kts 244°
2026-04-22 12:43 31.79652 34.86163 1681 ft 193 kts 313°
2026-04-22 12:44 31.80613 34.85348 1132 ft 172 kts 332°
2026-04-22 12:44 31.81674 34.84674 725 ft 175 kts 331°
2026-04-22 12:44 31.82695 34.84004 314 ft 172 kts 331°
2026-04-22 12:44 31.83627 34.83394 194 ft 119 kts 330°
2026-04-22 12:45 31.84219 34.83011 176 ft 82 kts 331°
2026-04-22 12:45 31.84634 34.82743 175 ft 42 kts 328°
2026-04-22 12:45 31.84734 34.82640 174 ft 11 kts 269°
2026-04-22 12:45 31.84736 34.82557 173 ft 10 kts 264°
2026-04-22 12:46 31.84729 34.82433 174 ft 14 kts 268°
2026-04-22 12:46 31.84724 34.82242 179 ft 28 kts 268°
2026-04-22 12:46 31.84720 34.82136 179 ft 10 kts 263°
2026-04-22 12:46 31.84645 34.82120 180 ft 18 kts 155°
2026-04-22 12:47 31.84366 34.82306 186 ft 48 kts 150°
2026-04-22 12:47 31.84031 34.82527 185 ft 58 kts 151°
2026-04-22 12:47 31.83684 34.82754 181 ft 54 kts 150°
2026-04-22 12:47 31.83398 34.82942 184 ft 43 kts 150°
2026-04-22 12:48 31.83096 34.83133 182 ft 54 kts 153°
2026-04-22 12:48 31.82892 34.83257 178 ft 19 kts 149°
2026-04-22 12:48 31.82896 34.83280 179 ft 4 kts 330°
2026-04-22 12:48 31.82897 34.83280 179 ft 0 kts 329°
2026-04-22 12:49 31.82931 34.83257 180 ft 56 kts 330°
2026-04-22 12:49 31.84082 34.82483 381 ft 295 kts 330°
2026-04-22 12:49 31.85888 34.81276 1510 ft 299 kts 330°
2026-04-22 12:50 31.87235 34.79463 2720 ft 302 kts 294°
2026-04-22 12:50 31.88087 34.77189 4141 ft 307 kts 293°
2026-04-22 12:50 31.88947 34.74864 5734 ft 313 kts 293°
2026-04-22 12:50 31.89811 34.72487 7527 ft 319 kts 292°
2026-04-22 12:51 31.90717 34.70046 9327 ft 336 kts 294°
2026-04-22 12:51 31.91660 34.67527 10475 ft 349 kts 294°
2026-04-22 12:51 31.92967 34.65103 10761 ft 354 kts 320°
2026-04-22 12:51 31.95260 34.64273 10275 ft 354 kts
2026-04-22 12:52 31.97553 34.65131 8128 ft 312 kts 24°
2026-04-22 12:52 31.99425 34.66240 5392 ft 318 kts 28°
2026-04-22 12:52 32.01453 34.67568 2936 ft 347 kts 30°
2026-04-22 12:52 32.03638 34.69074 1452 ft 317 kts 32°
2026-04-22 12:53 32.05285 34.70352 1124 ft 268 kts 34°
2026-04-22 12:53 32.06597 34.71619 907 ft 262 kts 69°
2026-04-22 12:53 32.06789 34.73634 654 ft 207 kts 91°
2026-04-22 12:53 32.06775 34.74366 580 ft 182 kts 92°
2026-04-22 12:54 32.06920 34.76036 416 ft 292 kts 34°
2026-04-22 12:54 32.08045 34.74441 1207 ft 400 kts 220°
2026-04-22 12:54 32.06700 34.75552 590 ft 258 kts 71°
2026-04-22 12:54 32.08431 34.75733 1082 ft 348 kts 306°
2026-04-22 12:55 32.08332 34.74283 1490 ft 303 kts 189°
2026-04-22 12:55 32.06165 34.74282 2951 ft 196 kts 208°
2026-04-22 12:55 32.06359 34.73345 1251 ft 220 kts 50°
2026-04-22 12:55 32.06379 34.75279 616 ft 254 kts 104°
2026-04-22 12:56 32.06455 34.75607 3016 ft 202 kts 321°
2026-04-22 12:56 32.08330 34.75133 1922 ft 311 kts 351°
2026-04-22 12:56 32.10347 34.74179 1697 ft 301 kts 316°
2026-04-22 12:56 32.10218 34.72267 1439 ft 305 kts 202°
2026-04-22 12:57 32.08102 34.72555 990 ft 335 kts 139°
2026-04-22 12:57 32.07059 34.74389 484 ft 212 kts 113°
2026-04-22 12:57 32.06185 34.75708 3456 ft 290 kts 237°
2026-04-22 12:57 32.04330 34.73360 4615 ft 396 kts 224°
2026-04-22 12:58 32.02394 34.71157 4703 ft 379 kts 224°
2026-04-22 12:58 32.00501 34.69040 4600 ft 371 kts 223°
2026-04-22 12:58 31.98536 34.67199 4680 ft 361 kts 208°
2026-04-22 12:58 31.96242 34.65975 4772 ft 364 kts 191°
2026-04-22 12:59 31.93839 34.66645 4536 ft 379 kts 140°
2026-04-22 12:59 31.92307 34.69109 4232 ft 354 kts 120°
2026-04-22 12:59 31.91153 34.71576 3938 ft 342 kts 117°
2026-04-22 12:59 31.90116 34.73916 3723 ft 340 kts 118°
2026-04-22 13:00 31.88916 34.76559 3572 ft 338 kts 124°
2026-04-22 13:00 31.87001 34.77992 2923 ft 335 kts 172°
2026-04-22 13:00 31.85370 34.78113 2447 ft 331 kts 180°
2026-04-22 13:00 31.83025 34.77969 2246 ft 330 kts 184°
2026-04-22 13:01 31.80796 34.78030 2036 ft 309 kts 158°
2026-04-22 13:01 31.79739 34.79508 1450 ft 207 kts 97°
2026-04-22 13:01 31.80097 34.81038 967 ft 200 kts 45°
2026-04-22 13:01 31.81373 34.81640 475 ft 188 kts
2026-04-22 13:02 31.82572 34.81727 191 ft 161 kts
2026-04-22 13:02 31.83444 34.81777 183 ft 95 kts
2026-04-22 13:02 31.83980 34.81810 181 ft 66 kts
2026-04-22 13:02 31.84393 34.81830 182 ft 54 kts
2026-04-22 13:03 31.84643 34.81836 182 ft 14 kts 337°
2026-04-22 13:03 31.84629 34.81754 183 ft 11 kts 227°
2026-04-22 13:03 31.84565 34.81675 181 ft 10 kts 263°
2026-04-22 13:03 31.84615 34.81580 179 ft 20 kts 298°
2026-04-22 13:04 31.84673 34.81498 179 ft 8 kts 28°
2026-04-22 13:04 31.84702 34.81541 181 ft 6 kts 118°
2026-04-22 13:04 31.84699 34.81548 181 ft 0 kts 117°